sensor_id;sensor_type;location;lat;lon;timestamp;temperature;humidity
40253;DHT22;25972;51.854;4.534;2023-09-19T00:01:20;14.70;99.90
40253;DHT22;25972;51.854;4.534;2023-09-19T00:03:47;14.70;99.90
40253;DHT22;25972;51.854;4.534;2023-09-19T00:06:13;14.70;99.90
40253;DHT22;25972;51.854;4.534;2023-09-19T00:08:41;14.70;99.90
40253;DHT22;25972;51.854;4.534;2023-09-19T00:11:09;14.70;99.90
40253;DHT22;25972;51.854;4.534;2023-09-19T00:13:37;14.70;99.90
40253;DHT22;25972;51.854;4.534;2023-09-19T00:16:08;14.70;99.90
40253;DHT22;25972;51.854;4.534;2023-09-19T00:18:36;14.70;99.90
40253;DHT22;25972;51.854;4.534;2023-09-19T00:21:04;14.70;99.90
40253;DHT22;25972;51.854;4.534;2023-09-19T00:23:30;14.70;99.90
40253;DHT22;25972;51.854;4.534;2023-09-19T00:26:00;14.70;99.90
40253;DHT22;25972;51.854;4.534;2023-09-19T00:28:26;14.70;99.90
40253;DHT22;25972;51.854;4.534;2023-09-19T00:30:53;14.70;99.90
40253;DHT22;25972;51.854;4.534;2023-09-19T00:33:20;14.60;99.90
40253;DHT22;25972;51.854;4.534;2023-09-19T00:35:47;14.60;99.90
40253;DHT22;25972;51.854;4.534;2023-09-19T00:38:15;14.50;99.90
40253;DHT22;25972;51.854;4.534;2023-09-19T00:40:44;14.50;99.90
40253;DHT22;25972;51.854;4.534;2023-09-19T00:43:10;14.50;99.90
40253;DHT22;25972;51.854;4.534;2023-09-19T00:45:37;14.40;99.90
40253;DHT22;25972;51.854;4.534;2023-09-19T00:48:08;14.40;99.90
40253;DHT22;25972;51.854;4.534;2023-09-19T00:50:36;14.40;99.90
40253;DHT22;25972;51.854;4.534;2023-09-19T00:53:02;14.40;99.90
40253;DHT22;25972;51.854;4.534;2023-09-19T00:55:35;14.30;99.90
40253;DHT22;25972;51.854;4.534;2023-09-19T00:58:03;14.30;99.90
40253;DHT22;25972;51.854;4.534;2023-09-19T01:00:32;14.30;99.90
40253;DHT22;25972;51.854;4.534;2023-09-19T01:03:00;14.30;99.90
40253;DHT22;25972;51.854;4.534;2023-09-19T01:05:27;14.30;99.90
40253;DHT22;25972;51.854;4.534;2023-09-19T01:07:54;14.30;99.90
40253;DHT22;25972;51.854;4.534;2023-09-19T01:10:21;14.30;99.90
40253;DHT22;25972;51.854;4.534;2023-09-19T01:12:54;14.40;99.90
40253;DHT22;25972;51.854;4.534;2023-09-19T01:15:37;14.40;99.90
40253;DHT22;25972;51.854;4.534;2023-09-19T01:18:14;14.40;99.90
40253;DHT22;25972;51.854;4.534;2023-09-19T01:20:49;14.40;99.90
40253;DHT22;25972;51.854;4.534;2023-09-19T01:23:23;14.40;99.90
40253;DHT22;25972;51.854;4.534;2023-09-19T01:26:06;14.30;99.90
40253;DHT22;25972;51.854;4.534;2023-09-19T01:28:45;14.30;99.90
40253;DHT22;25972;51.854;4.534;2023-09-19T01:31:22;14.30;99.90
40253;DHT22;25972;51.854;4.534;2023-09-19T01:33:59;14.30;99.90
40253;DHT22;25972;51.854;4.534;2023-09-19T01:36:27;14.30;99.90
40253;DHT22;25972;51.854;4.534;2023-09-19T01:38:55;14.30;99.90
40253;DHT22;25972;51.854;4.534;2023-09-19T01:41:29;14.30;99.90
40253;DHT22;25972;51.854;4.534;2023-09-19T01:43:56;14.30;99.90
40253;DHT22;25972;51.854;4.534;2023-09-19T01:46:32;14.30;99.90
40253;DHT22;25972;51.854;4.534;2023-09-19T01:49:09;14.30;99.90
40253;DHT22;25972;51.854;4.534;2023-09-19T01:51:46;14.30;99.90
40253;DHT22;25972;51.854;4.534;2023-09-19T01:54:20;14.20;99.90
40253;DHT22;25972;51.854;4.534;2023-09-19T01:56:52;14.20;99.90
40253;DHT22;25972;51.854;4.534;2023-09-19T01:59:25;14.20;99.90
40253;DHT22;25972;51.854;4.534;2023-09-19T02:01:55;14.20;99.90
40253;DHT22;25972;51.854;4.534;2023-09-19T02:04:22;14.20;99.90
40253;DHT22;25972;51.854;4.534;2023-09-19T02:06:48;14.20;99.90
40253;DHT22;25972;51.854;4.534;2023-09-19T02:09:14;14.20;99.90
40253;DHT22;25972;51.854;4.534;2023-09-19T02:11:40;14.10;99.90
40253;DHT22;25972;51.854;4.534;2023-09-19T02:14:08;14.10;99.90
40253;DHT22;25972;51.854;4.534;2023-09-19T02:16:34;14.10;99.90
40253;DHT22;25972;51.854;4.534;2023-09-19T02:19:02;14.10;99.90
40253;DHT22;25972;51.854;4.534;2023-09-19T02:21:31;14.10;99.90
40253;DHT22;25972;51.854;4.534;2023-09-19T02:23:58;14.10;99.90
40253;DHT22;25972;51.854;4.534;2023-09-19T02:26:24;14.10;99.90
40253;DHT22;25972;51.854;4.534;2023-09-19T02:28:50;14.10;99.90
40253;DHT22;25972;51.854;4.534;2023-09-19T02:31:17;14.10;99.90
40253;DHT22;25972;51.854;4.534;2023-09-19T02:33:43;14.10;99.90
40253;DHT22;25972;51.854;4.534;2023-09-19T02:36:11;14.10;99.90
40253;DHT22;25972;51.854;4.534;2023-09-19T02:38:37;14.10;99.90
40253;DHT22;25972;51.854;4.534;2023-09-19T02:41:03;14.20;99.90
40253;DHT22;25972;51.854;4.534;2023-09-19T02:43:30;14.10;99.90
40253;DHT22;25972;51.854;4.534;2023-09-19T02:45:56;14.20;99.90
40253;DHT22;25972;51.854;4.534;2023-09-19T02:48:23;14.20;99.90
40253;DHT22;25972;51.854;4.534;2023-09-19T02:50:50;14.20;99.90
40253;DHT22;25972;51.854;4.534;2023-09-19T02:53:18;14.20;99.90
40253;DHT22;25972;51.854;4.534;2023-09-19T02:55:44;14.20;99.90
40253;DHT22;25972;51.854;4.534;2023-09-19T02:58:12;14.20;99.90
40253;DHT22;25972;51.854;4.534;2023-09-19T03:00:40;14.20;99.90
40253;DHT22;25972;51.854;4.534;2023-09-19T03:03:08;14.30;99.90
40253;DHT22;25972;51.854;4.534;2023-09-19T03:05:35;14.20;99.90
40253;DHT22;25972;51.854;4.534;2023-09-19T03:08:01;14.20;99.90
40253;DHT22;25972;51.854;4.534;2023-09-19T03:10:30;14.20;99.90
40253;DHT22;25972;51.854;4.534;2023-09-19T03:12:58;14.20;99.90
40253;DHT22;25972;51.854;4.534;2023-09-19T03:15:27;14.20;99.90
40253;DHT22;25972;51.854;4.534;2023-09-19T03:17:53;14.20;99.90
40253;DHT22;25972;51.854;4.534;2023-09-19T03:20:22;14.30;99.90
40253;DHT22;25972;51.854;4.534;2023-09-19T03:22:49;14.20;99.90
40253;DHT22;25972;51.854;4.534;2023-09-19T03:25:16;14.30;99.90
40253;DHT22;25972;51.854;4.534;2023-09-19T03:27:47;14.30;99.90
40253;DHT22;25972;51.854;4.534;2023-09-19T03:30:14;14.20;99.90
40253;DHT22;25972;51.854;4.534;2023-09-19T03:32:45;14.20;99.90
40253;DHT22;25972;51.854;4.534;2023-09-19T03:35:12;14.20;99.90
40253;DHT22;25972;51.854;4.534;2023-09-19T03:37:41;14.20;99.90
40253;DHT22;25972;51.854;4.534;2023-09-19T03:40:08;14.20;99.90
40253;DHT22;25972;51.854;4.534;2023-09-19T03:42:38;14.20;99.90
40253;DHT22;25972;51.854;4.534;2023-09-19T03:45:07;14.20;99.90
40253;DHT22;25972;51.854;4.534;2023-09-19T03:47:35;14.20;99.90
40253;DHT22;25972;51.854;4.534;2023-09-19T03:50:05;14.20;99.90
40253;DHT22;25972;51.854;4.534;2023-09-19T03:52:31;14.20;99.90
40253;DHT22;25972;51.854;4.534;2023-09-19T03:54:57;14.20;99.90
40253;DHT22;25972;51.854;4.534;2023-09-19T03:57:23;14.20;99.90
40253;DHT22;25972;51.854;4.534;2023-09-19T03:59:50;14.30;99.90
40253;DHT22;25972;51.854;4.534;2023-09-19T04:02:20;14.30;99.90
40253;DHT22;25972;51.854;4.534;2023-09-19T04:04:50;14.20;99.90
40253;DHT22;25972;51.854;4.534;2023-09-19T04:07:16;14.20;99.90
40253;DHT22;25972;51.854;4.534;2023-09-19T04:09:42;14.20;99.90
40253;DHT22;25972;51.854;4.534;2023-09-19T04:12:09;14.20;99.90
40253;DHT22;25972;51.854;4.534;2023-09-19T04:14:35;14.20;99.90
40253;DHT22;25972;51.854;4.534;2023-09-19T04:17:01;14.20;99.90
40253;DHT22;25972;51.854;4.534;2023-09-19T04:19:28;14.30;99.90
40253;DHT22;25972;51.854;4.534;2023-09-19T04:21:54;14.20;99.90
40253;DHT22;25972;51.854;4.534;2023-09-19T04:24:21;14.30;99.90
40253;DHT22;25972;51.854;4.534;2023-09-19T04:26:47;14.20;99.90
40253;DHT22;25972;51.854;4.534;2023-09-19T04:29:14;14.20;99.90
40253;DHT22;25972;51.854;4.534;2023-09-19T04:31:39;14.20;99.90
40253;DHT22;25972;51.854;4.534;2023-09-19T04:34:06;14.20;99.90
40253;DHT22;25972;51.854;4.534;2023-09-19T04:36:33;14.20;99.90
40253;DHT22;25972;51.854;4.534;2023-09-19T04:38:59;14.30;99.90
40253;DHT22;25972;51.854;4.534;2023-09-19T04:41:25;14.20;99.90
40253;DHT22;25972;51.854;4.534;2023-09-19T04:43:51;14.20;99.90
40253;DHT22;25972;51.854;4.534;2023-09-19T04:46:17;14.30;99.90
40253;DHT22;25972;51.854;4.534;2023-09-19T04:48:43;14.20;99.90
40253;DHT22;25972;51.854;4.534;2023-09-19T04:51:10;14.30;99.90
40253;DHT22;25972;51.854;4.534;2023-09-19T04:53:38;14.30;99.90
40253;DHT22;25972;51.854;4.534;2023-09-19T04:56:04;14.30;99.90
40253;DHT22;25972;51.854;4.534;2023-09-19T04:58:32;14.30;99.90
40253;DHT22;25972;51.854;4.534;2023-09-19T05:00:58;14.30;99.90
40253;DHT22;25972;51.854;4.534;2023-09-19T05:03:25;14.30;99.90
40253;DHT22;25972;51.854;4.534;2023-09-19T05:05:51;14.30;99.90
40253;DHT22;25972;51.854;4.534;2023-09-19T05:08:17;14.30;99.90
40253;DHT22;25972;51.854;4.534;2023-09-19T05:10:46;14.30;99.90
40253;DHT22;25972;51.854;4.534;2023-09-19T05:13:12;14.30;99.90
40253;DHT22;25972;51.854;4.534;2023-09-19T05:15:38;14.30;99.90
40253;DHT22;25972;51.854;4.534;2023-09-19T05:18:05;14.30;99.90
40253;DHT22;25972;51.854;4.534;2023-09-19T05:20:32;14.30;99.90
40253;DHT22;25972;51.854;4.534;2023-09-19T05:23:00;14.30;99.90
40253;DHT22;25972;51.854;4.534;2023-09-19T05:25:29;14.30;99.90
40253;DHT22;25972;51.854;4.534;2023-09-19T05:27:57;14.40;99.90
40253;DHT22;25972;51.854;4.534;2023-09-19T05:30:23;14.40;99.90
40253;DHT22;25972;51.854;4.534;2023-09-19T05:32:49;14.40;99.90
40253;DHT22;25972;51.854;4.534;2023-09-19T05:35:17;14.40;99.90
40253;DHT22;25972;51.854;4.534;2023-09-19T05:37:43;14.40;99.90
40253;DHT22;25972;51.854;4.534;2023-09-19T05:40:10;14.50;99.90
40253;DHT22;25972;51.854;4.534;2023-09-19T05:42:36;14.50;99.90
40253;DHT22;25972;51.854;4.534;2023-09-19T05:45:06;14.50;99.90
40253;DHT22;25972;51.854;4.534;2023-09-19T05:47:32;14.50;99.90
40253;DHT22;25972;51.854;4.534;2023-09-19T05:49:58;14.50;99.90
40253;DHT22;25972;51.854;4.534;2023-09-19T05:52:25;14.60;99.90
40253;DHT22;25972;51.854;4.534;2023-09-19T05:54:51;14.60;99.90
40253;DHT22;25972;51.854;4.534;2023-09-19T05:57:17;14.60;99.90
40253;DHT22;25972;51.854;4.534;2023-09-19T05:59:43;14.60;99.90
40253;DHT22;25972;51.854;4.534;2023-09-19T06:02:11;14.70;99.90
40253;DHT22;25972;51.854;4.534;2023-09-19T06:04:38;14.70;99.90
40253;DHT22;25972;51.854;4.534;2023-09-19T06:07:06;14.70;99.90
40253;DHT22;25972;51.854;4.534;2023-09-19T06:09:33;14.70;99.90
40253;DHT22;25972;51.854;4.534;2023-09-19T06:11:59;14.70;99.90
40253;DHT22;25972;51.854;4.534;2023-09-19T06:14:29;14.80;99.90
40253;DHT22;25972;51.854;4.534;2023-09-19T06:16:56;14.80;99.90
40253;DHT22;25972;51.854;4.534;2023-09-19T06:19:24;14.90;99.90
40253;DHT22;25972;51.854;4.534;2023-09-19T06:21:52;14.90;99.90
40253;DHT22;25972;51.854;4.534;2023-09-19T06:24:21;14.90;99.90
40253;DHT22;25972;51.854;4.534;2023-09-19T06:26:47;15.00;99.90
40253;DHT22;25972;51.854;4.534;2023-09-19T06:29:14;15.00;99.90
40253;DHT22;25972;51.854;4.534;2023-09-19T06:31:43;15.00;99.90
40253;DHT22;25972;51.854;4.534;2023-09-19T06:34:10;15.00;99.90
40253;DHT22;25972;51.854;4.534;2023-09-19T06:36:38;15.10;99.90
40253;DHT22;25972;51.854;4.534;2023-09-19T06:39:04;15.10;99.90
40253;DHT22;25972;51.854;4.534;2023-09-19T06:41:32;15.10;99.90
40253;DHT22;25972;51.854;4.534;2023-09-19T06:44:04;15.10;99.90
40253;DHT22;25972;51.854;4.534;2023-09-19T06:46:31;15.10;99.90
40253;DHT22;25972;51.854;4.534;2023-09-19T06:49:00;15.10;99.90
40253;DHT22;25972;51.854;4.534;2023-09-19T06:51:32;15.20;99.90
40253;DHT22;25972;51.854;4.534;2023-09-19T06:54:02;15.20;99.90
40253;DHT22;25972;51.854;4.534;2023-09-19T06:56:28;15.30;99.90
40253;DHT22;25972;51.854;4.534;2023-09-19T06:58:54;15.30;99.90
40253;DHT22;25972;51.854;4.534;2023-09-19T07:01:20;15.40;99.90
40253;DHT22;25972;51.854;4.534;2023-09-19T07:03:46;15.40;99.90
40253;DHT22;25972;51.854;4.534;2023-09-19T07:06:12;15.50;99.90
40253;DHT22;25972;51.854;4.534;2023-09-19T07:08:38;15.50;99.90
40253;DHT22;25972;51.854;4.534;2023-09-19T07:11:06;15.60;99.90
40253;DHT22;25972;51.854;4.534;2023-09-19T07:13:32;15.60;99.90
40253;DHT22;25972;51.854;4.534;2023-09-19T07:15:59;15.70;99.90
40253;DHT22;25972;51.854;4.534;2023-09-19T07:18:25;15.80;99.90
40253;DHT22;25972;51.854;4.534;2023-09-19T07:20:56;15.90;99.90
40253;DHT22;25972;51.854;4.534;2023-09-19T07:23:27;15.90;99.90
40253;DHT22;25972;51.854;4.534;2023-09-19T07:25:57;15.90;99.90
40253;DHT22;25972;51.854;4.534;2023-09-19T07:28:26;16.00;99.90
40253;DHT22;25972;51.854;4.534;2023-09-19T07:30:52;16.10;99.90
40253;DHT22;25972;51.854;4.534;2023-09-19T07:33:18;16.20;99.90
40253;DHT22;25972;51.854;4.534;2023-09-19T07:35:48;16.30;99.90
40253;DHT22;25972;51.854;4.534;2023-09-19T07:38:14;16.40;99.90
40253;DHT22;25972;51.854;4.534;2023-09-19T07:40:40;16.30;99.90
40253;DHT22;25972;51.854;4.534;2023-09-19T07:43:06;16.40;99.90
40253;DHT22;25972;51.854;4.534;2023-09-19T07:45:34;16.30;99.90
40253;DHT22;25972;51.854;4.534;2023-09-19T07:48:04;16.40;99.90
40253;DHT22;25972;51.854;4.534;2023-09-19T07:50:33;16.40;99.90
40253;DHT22;25972;51.854;4.534;2023-09-19T07:53:02;16.40;99.90
40253;DHT22;25972;51.854;4.534;2023-09-19T07:55:30;16.50;99.90
40253;DHT22;25972;51.854;4.534;2023-09-19T07:57:59;16.50;99.90
40253;DHT22;25972;51.854;4.534;2023-09-19T08:00:27;16.60;99.90
40253;DHT22;25972;51.854;4.534;2023-09-19T08:02:54;16.70;99.90
40253;DHT22;25972;51.854;4.534;2023-09-19T08:05:21;16.70;99.90
40253;DHT22;25972;51.854;4.534;2023-09-19T08:07:48;16.70;99.90
40253;DHT22;25972;51.854;4.534;2023-09-19T08:10:15;16.70;99.90
40253;DHT22;25972;51.854;4.534;2023-09-19T08:12:43;16.60;99.90
40253;DHT22;25972;51.854;4.534;2023-09-19T08:15:13;16.70;99.90
40253;DHT22;25972;51.854;4.534;2023-09-19T08:17:39;16.90;99.90
40253;DHT22;25972;51.854;4.534;2023-09-19T08:20:08;17.00;99.90
40253;DHT22;25972;51.854;4.534;2023-09-19T08:22:43;17.10;99.90
40253;DHT22;25972;51.854;4.534;2023-09-19T08:25:12;17.30;99.90
40253;DHT22;25972;51.854;4.534;2023-09-19T08:27:38;17.30;99.90
40253;DHT22;25972;51.854;4.534;2023-09-19T08:30:05;17.30;99.90
40253;DHT22;25972;51.854;4.534;2023-09-19T08:32:32;17.30;99.90
40253;DHT22;25972;51.854;4.534;2023-09-19T08:34:58;17.20;99.90
40253;DHT22;25972;51.854;4.534;2023-09-19T08:37:26;17.30;99.90
40253;DHT22;25972;51.854;4.534;2023-09-19T08:39:52;17.50;99.90
40253;DHT22;25972;51.854;4.534;2023-09-19T08:42:18;17.40;99.90
40253;DHT22;25972;51.854;4.534;2023-09-19T08:44:46;17.30;99.90
40253;DHT22;25972;51.854;4.534;2023-09-19T08:47:15;17.20;99.90
40253;DHT22;25972;51.854;4.534;2023-09-19T08:49:49;17.20;99.90
40253;DHT22;25972;51.854;4.534;2023-09-19T08:52:21;17.20;99.90
40253;DHT22;25972;51.854;4.534;2023-09-19T08:54:52;17.30;99.90
40253;DHT22;25972;51.854;4.534;2023-09-19T08:57:19;17.40;99.90
40253;DHT22;25972;51.854;4.534;2023-09-19T08:59:48;17.60;99.90
40253;DHT22;25972;51.854;4.534;2023-09-19T09:02:18;17.80;99.90
40253;DHT22;25972;51.854;4.534;2023-09-19T09:04:46;17.80;99.90
40253;DHT22;25972;51.854;4.534;2023-09-19T09:07:14;17.80;99.90
40253;DHT22;25972;51.854;4.534;2023-09-19T09:09:42;17.70;99.90
40253;DHT22;25972;51.854;4.534;2023-09-19T09:12:13;17.80;99.90
40253;DHT22;25972;51.854;4.534;2023-09-19T09:14:39;17.70;99.90
40253;DHT22;25972;51.854;4.534;2023-09-19T09:17:06;17.70;99.90
40253;DHT22;25972;51.854;4.534;2023-09-19T09:19:33;17.60;99.90
40253;DHT22;25972;51.854;4.534;2023-09-19T09:22:06;17.70;99.90
40253;DHT22;25972;51.854;4.534;2023-09-19T09:24:33;17.80;99.90
40253;DHT22;25972;51.854;4.534;2023-09-19T09:26:59;17.70;99.90
40253;DHT22;25972;51.854;4.534;2023-09-19T09:29:44;17.70;99.90
40253;DHT22;25972;51.854;4.534;2023-09-19T09:32:20;17.80;99.90
40253;DHT22;25972;51.854;4.534;2023-09-19T09:34:50;18.10;99.90
40253;DHT22;25972;51.854;4.534;2023-09-19T09:37:17;18.20;99.90
40253;DHT22;25972;51.854;4.534;2023-09-19T09:39:50;18.20;99.90
40253;DHT22;25972;51.854;4.534;2023-09-19T09:42:32;18.10;99.90
40253;DHT22;25972;51.854;4.534;2023-09-19T09:45:17;18.10;99.90
40253;DHT22;25972;51.854;4.534;2023-09-19T09:47:49;18.20;99.90
40253;DHT22;25972;51.854;4.534;2023-09-19T09:50:29;18.40;99.90
40253;DHT22;25972;51.854;4.534;2023-09-19T09:52:55;18.40;99.90
40253;DHT22;25972;51.854;4.534;2023-09-19T09:55:57;18.70;99.90
40253;DHT22;25972;51.854;4.534;2023-09-19T09:58:25;18.80;99.90
40253;DHT22;25972;51.854;4.534;2023-09-19T10:00:56;18.70;99.90
40253;DHT22;25972;51.854;4.534;2023-09-19T10:03:36;18.60;99.90
40253;DHT22;25972;51.854;4.534;2023-09-19T10:06:10;18.50;99.90
40253;DHT22;25972;51.854;4.534;2023-09-19T10:08:58;18.30;99.90
40253;DHT22;25972;51.854;4.534;2023-09-19T10:11:47;18.30;99.90
40253;DHT22;25972;51.854;4.534;2023-09-19T10:14:20;18.50;99.90
40253;DHT22;25972;51.854;4.534;2023-09-19T10:16:53;18.50;99.90
40253;DHT22;25972;51.854;4.534;2023-09-19T10:19:30;18.60;99.90
40253;DHT22;25972;51.854;4.534;2023-09-19T10:22:01;18.70;99.90
40253;DHT22;25972;51.854;4.534;2023-09-19T10:24:28;18.90;99.90
40253;DHT22;25972;51.854;4.534;2023-09-19T10:26:55;18.90;99.90
40253;DHT22;25972;51.854;4.534;2023-09-19T10:29:24;18.80;99.90
40253;DHT22;25972;51.854;4.534;2023-09-19T10:31:54;18.90;99.90
40253;DHT22;25972;51.854;4.534;2023-09-19T10:34:22;18.90;99.90
40253;DHT22;25972;51.854;4.534;2023-09-19T10:36:51;19.00;99.90
40253;DHT22;25972;51.854;4.534;2023-09-19T10:39:18;19.00;99.90
40253;DHT22;25972;51.854;4.534;2023-09-19T10:41:49;19.10;99.90
40253;DHT22;25972;51.854;4.534;2023-09-19T10:44:23;19.10;99.90
40253;DHT22;25972;51.854;4.534;2023-09-19T10:46:49;19.10;99.80
40253;DHT22;25972;51.854;4.534;2023-09-19T10:49:19;18.90;91.90
40253;DHT22;25972;51.854;4.534;2023-09-19T10:51:45;18.90;94.50
40253;DHT22;25972;51.854;4.534;2023-09-19T10:54:17;18.90;87.10
40253;DHT22;25972;51.854;4.534;2023-09-19T10:56:46;18.90;78.60
40253;DHT22;25972;51.854;4.534;2023-09-19T10:59:16;19.00;83.60
40253;DHT22;25972;51.854;4.534;2023-09-19T11:01:45;19.00;88.90
40253;DHT22;25972;51.854;4.534;2023-09-19T11:04:31;19.10;91.10
40253;DHT22;25972;51.854;4.534;2023-09-19T11:07:01;19.10;89.50
40253;DHT22;25972;51.854;4.534;2023-09-19T11:09:47;19.20;86.60
40253;DHT22;25972;51.854;4.534;2023-09-19T11:16:03;19.50;68.90
40253;DHT22;25972;51.854;4.534;2023-09-19T11:18:51;19.50;48.90
40253;DHT22;25972;51.854;4.534;2023-09-19T11:21:42;19.40;34.50
40253;DHT22;25972;51.854;4.534;2023-09-19T11:24:31;19.10;29.90
40253;DHT22;25972;51.854;4.534;2023-09-19T11:27:11;19.00;39.40
40253;DHT22;25972;51.854;4.534;2023-09-19T11:29:39;18.90;48.10
40253;DHT22;25972;51.854;4.534;2023-09-19T11:32:06;18.90;68.50
40253;DHT22;25972;51.854;4.534;2023-09-19T11:34:44;18.90;78.80
40253;DHT22;25972;51.854;4.534;2023-09-19T11:40:27;18.70;71.80
40253;DHT22;25972;51.854;4.534;2023-09-19T11:42:54;18.80;90.60
40253;DHT22;25972;51.854;4.534;2023-09-19T11:48:27;18.80;92.80
40253;DHT22;25972;51.854;4.534;2023-09-19T11:50:55;18.80;95.30
40253;DHT22;25972;51.854;4.534;2023-09-19T11:53:23;18.90;99.90
40253;DHT22;25972;51.854;4.534;2023-09-19T11:55:52;19.00;99.90
40253;DHT22;25972;51.854;4.534;2023-09-19T11:58:18;19.00;99.90
40253;DHT22;25972;51.854;4.534;2023-09-19T12:00:46;18.90;99.90
40253;DHT22;25972;51.854;4.534;2023-09-19T12:03:19;19.00;99.90
40253;DHT22;25972;51.854;4.534;2023-09-19T12:05:47;18.90;99.90
40253;DHT22;25972;51.854;4.534;2023-09-19T12:08:15;18.90;99.90
40253;DHT22;25972;51.854;4.534;2023-09-19T12:10:47;18.90;99.90
40253;DHT22;25972;51.854;4.534;2023-09-19T12:13:17;19.00;99.90
40253;DHT22;25972;51.854;4.534;2023-09-19T12:15:45;19.10;99.90
40253;DHT22;25972;51.854;4.534;2023-09-19T12:18:26;19.20;99.90
40253;DHT22;25972;51.854;4.534;2023-09-19T12:20:53;19.10;99.90
40253;DHT22;25972;51.854;4.534;2023-09-19T12:23:20;19.20;99.90
40253;DHT22;25972;51.854;4.534;2023-09-19T12:25:46;19.10;99.90
40253;DHT22;25972;51.854;4.534;2023-09-19T12:28:13;19.10;99.90
40253;DHT22;25972;51.854;4.534;2023-09-19T12:30:41;19.10;99.90
40253;DHT22;25972;51.854;4.534;2023-09-19T12:33:15;19.10;99.90
40253;DHT22;25972;51.854;4.534;2023-09-19T12:35:42;19.00;99.90
40253;DHT22;25972;51.854;4.534;2023-09-19T12:38:10;18.90;99.90
40253;DHT22;25972;51.854;4.534;2023-09-19T12:40:38;19.00;99.90
40253;DHT22;25972;51.854;4.534;2023-09-19T12:43:07;19.20;99.90
40253;DHT22;25972;51.854;4.534;2023-09-19T12:45:35;19.20;99.90
40253;DHT22;25972;51.854;4.534;2023-09-19T12:48:20;19.30;99.90
40253;DHT22;25972;51.854;4.534;2023-09-19T12:51:03;19.30;99.90
40253;DHT22;25972;51.854;4.534;2023-09-19T12:53:37;19.40;99.90
40253;DHT22;25972;51.854;4.534;2023-09-19T12:56:10;19.50;99.90
40253;DHT22;25972;51.854;4.534;2023-09-19T12:58:53;19.70;99.90
40253;DHT22;25972;51.854;4.534;2023-09-19T13:01:20;19.90;99.90
40253;DHT22;25972;51.854;4.534;2023-09-19T13:04:15;20.10;99.90
40253;DHT22;25972;51.854;4.534;2023-09-19T13:06:45;20.20;99.90
40253;DHT22;25972;51.854;4.534;2023-09-19T13:09:15;20.20;99.90
40253;DHT22;25972;51.854;4.534;2023-09-19T13:11:42;20.10;94.10
40253;DHT22;25972;51.854;4.534;2023-09-19T13:14:15;19.90;89.50
40253;DHT22;25972;51.854;4.534;2023-09-19T13:16:57;19.80;91.90
40253;DHT22;25972;51.854;4.534;2023-09-19T13:19:41;19.60;69.40
40253;DHT22;25972;51.854;4.534;2023-09-19T13:22:38;19.50;65.50
40253;DHT22;25972;51.854;4.534;2023-09-19T13:25:27;19.50;60.70
40253;DHT22;25972;51.854;4.534;2023-09-19T13:27:59;19.50;75.10
40253;DHT22;25972;51.854;4.534;2023-09-19T13:30:27;19.40;63.40
40253;DHT22;25972;51.854;4.534;2023-09-19T13:33:08;19.40;63.30
40253;DHT22;25972;51.854;4.534;2023-09-19T13:35:37;19.40;73.00
40253;DHT22;25972;51.854;4.534;2023-09-19T13:38:06;19.40;74.70
40253;DHT22;25972;51.854;4.534;2023-09-19T13:40:37;19.30;86.30
40253;DHT22;25972;51.854;4.534;2023-09-19T13:43:11;19.30;79.90
40253;DHT22;25972;51.854;4.534;2023-09-19T13:45:37;19.20;79.80
40253;DHT22;25972;51.854;4.534;2023-09-19T13:48:05;19.20;86.40
40253;DHT22;25972;51.854;4.534;2023-09-19T13:50:31;19.20;95.00
40253;DHT22;25972;51.854;4.534;2023-09-19T13:52:59;19.20;97.00
40253;DHT22;25972;51.854;4.534;2023-09-19T13:55:26;19.20;99.50
40253;DHT22;25972;51.854;4.534;2023-09-19T13:57:52;19.20;95.20
40253;DHT22;25972;51.854;4.534;2023-09-19T14:00:21;19.20;94.80
40253;DHT22;25972;51.854;4.534;2023-09-19T14:02:48;19.20;92.10
40253;DHT22;25972;51.854;4.534;2023-09-19T14:05:15;19.20;93.70
40253;DHT22;25972;51.854;4.534;2023-09-19T14:07:42;19.00;96.70
40253;DHT22;25972;51.854;4.534;2023-09-19T14:10:10;19.00;99.90
40253;DHT22;25972;51.854;4.534;2023-09-19T14:12:37;19.00;99.90
40253;DHT22;25972;51.854;4.534;2023-09-19T14:15:03;18.90;99.90
40253;DHT22;25972;51.854;4.534;2023-09-19T14:17:29;19.00;99.90
40253;DHT22;25972;51.854;4.534;2023-09-19T14:19:56;19.00;99.90
40253;DHT22;25972;51.854;4.534;2023-09-19T14:22:22;18.90;99.90
40253;DHT22;25972;51.854;4.534;2023-09-19T14:24:49;18.90;99.90
40253;DHT22;25972;51.854;4.534;2023-09-19T14:27:16;19.00;99.90
40253;DHT22;25972;51.854;4.534;2023-09-19T14:29:42;18.90;99.90
40253;DHT22;25972;51.854;4.534;2023-09-19T14:32:09;19.00;99.90
40253;DHT22;25972;51.854;4.534;2023-09-19T14:34:35;19.00;99.90
40253;DHT22;25972;51.854;4.534;2023-09-19T14:37:07;19.00;99.90
40253;DHT22;25972;51.854;4.534;2023-09-19T14:39:33;19.00;99.90
40253;DHT22;25972;51.854;4.534;2023-09-19T14:42:00;18.90;99.90
40253;DHT22;25972;51.854;4.534;2023-09-19T14:44:27;18.90;99.90
40253;DHT22;25972;51.854;4.534;2023-09-19T14:46:54;18.90;99.90
40253;DHT22;25972;51.854;4.534;2023-09-19T14:49:20;18.90;99.90
40253;DHT22;25972;51.854;4.534;2023-09-19T14:51:46;18.90;99.90
40253;DHT22;25972;51.854;4.534;2023-09-19T14:54:15;18.90;99.90
40253;DHT22;25972;51.854;4.534;2023-09-19T14:56:44;18.90;99.90
40253;DHT22;25972;51.854;4.534;2023-09-19T14:59:11;18.80;99.90
40253;DHT22;25972;51.854;4.534;2023-09-19T15:01:40;18.80;99.90
40253;DHT22;25972;51.854;4.534;2023-09-19T15:04:07;18.80;99.90
40253;DHT22;25972;51.854;4.534;2023-09-19T15:06:33;18.80;99.90
40253;DHT22;25972;51.854;4.534;2023-09-19T15:09:00;18.90;99.90
40253;DHT22;25972;51.854;4.534;2023-09-19T15:11:26;18.90;99.90
40253;DHT22;25972;51.854;4.534;2023-09-19T15:13:53;18.80;99.90
40253;DHT22;25972;51.854;4.534;2023-09-19T15:16:22;18.80;99.90
40253;DHT22;25972;51.854;4.534;2023-09-19T15:18:50;18.80;99.90
40253;DHT22;25972;51.854;4.534;2023-09-19T15:21:18;18.80;99.90
40253;DHT22;25972;51.854;4.534;2023-09-19T15:23:44;18.80;99.90
40253;DHT22;25972;51.854;4.534;2023-09-19T15:26:12;18.90;99.90
40253;DHT22;25972;51.854;4.534;2023-09-19T15:28:39;18.90;99.90
40253;DHT22;25972;51.854;4.534;2023-09-19T15:31:08;18.90;99.90
40253;DHT22;25972;51.854;4.534;2023-09-19T15:33:35;19.00;99.90
40253;DHT22;25972;51.854;4.534;2023-09-19T15:36:04;18.90;99.90
40253;DHT22;25972;51.854;4.534;2023-09-19T15:38:32;18.90;99.90
40253;DHT22;25972;51.854;4.534;2023-09-19T15:41:19;18.90;99.90
40253;DHT22;25972;51.854;4.534;2023-09-19T15:43:45;18.90;99.90
40253;DHT22;25972;51.854;4.534;2023-09-19T15:46:12;18.90;99.90
40253;DHT22;25972;51.854;4.534;2023-09-19T15:48:39;18.90;99.90
40253;DHT22;25972;51.854;4.534;2023-09-19T15:51:07;18.80;99.90
40253;DHT22;25972;51.854;4.534;2023-09-19T15:53:43;18.80;99.90